Time;durP1;ratioP1;P1;durP2;ratioP2;P2;SDS_P1;SDS_P2;PMS_P1;PMS_P2;Temp;Humidity;BMP_temperature;BMP_pressure;BME280_temperature;BME280_humidity;BME280_pressure;Samples;Min_cycle;Max_cycle;Signal;HPM_P1;HPM_P2
2022/04/13 00:02:13;;;;;;;36.60;20.40;;;;;;;2.93;66.01;98933.09;105747;1277;23087;-74
2022/04/13 00:04:40;;;;;;;34.20;19.90;;;;;;;2.88;66.18;98932.39;105962;1275;23148;-76
2022/04/13 00:07:07;;;;;;;38.30;21.40;;;;;;;2.83;66.24;98937.45;106035;1274;137530;-75
2022/04/13 00:09:49;;;;;;;45.90;24.20;;;;;;;2.78;66.45;98939.68;105866;1275;22607;-75
2022/04/13 00:12:16;;;;;;;38.00;21.90;;;;;;;2.78;66.46;98942.16;105923;1276;138085;-75
2022/04/13 00:14:57;;;;;;;37.00;20.80;;;;;;;2.78;66.51;98937.19;105927;1274;22626;-75
2022/04/13 00:17:24;;;;;;;39.30;21.20;;;;;;;2.78;66.62;98936.32;105853;1277;138335;-75
2022/04/13 00:20:07;;;;;;;33.20;20.50;;;;;;;2.77;66.56;98934.83;106031;1274;22541;-75
2022/04/13 00:22:34;;;;;;;37.30;21.80;;;;;;;2.75;66.66;98936.61;106069;1274;25323;-75
2022/04/13 00:25:15;;;;;;;36.80;21.00;;;;;;;2.74;66.76;98935.18;105881;1274;137567;-75
2022/04/13 00:27:42;;;;;;;37.30;21.30;;;;;;;2.71;66.69;98938.36;105906;1277;22574;-74
2022/04/13 00:30:14;;;;;;;38.00;20.40;;;;;;;2.69;66.87;98939.30;105629;1278;137275;-75
2022/04/13 00:32:54;;;;;;;37.10;19.90;;;;;;;2.68;66.96;98941.30;105951;1277;22567;-74
2022/04/13 00:35:38;;;;;;;33.70;20.00;;;;;;;2.65;67.05;98941.14;105831;1276;137446;-74
2022/04/13 00:38:06;;;;;;;31.30;18.80;;;;;;;2.63;67.14;98940.05;105958;1277;30548;-74
2022/04/13 00:40:38;;;;;;;33.00;20.20;;;;;;;2.60;67.12;98943.44;105931;1277;25267;-75
2022/04/13 00:43:07;;;;;;;32.60;18.50;;;;;;;2.55;67.12;98946.88;105734;1277;137518;-74
2022/04/13 00:45:48;;;;;;;35.80;19.60;;;;;;;2.51;67.46;98944.87;105809;1276;24764;-75
2022/04/13 00:48:31;;;;;;;35.30;20.40;;;;;;;2.47;67.45;98944.06;105875;1277;137668;-74
2022/04/13 00:50:59;;;;;;;35.30;21.80;;;;;;;2.43;67.50;98941.94;105949;1277;25329;-74
2022/04/13 00:53:42;;;;;;;32.40;18.70;;;;;;;2.43;67.63;98943.46;105824;1277;138498;-74
2022/04/13 00:56:10;;;;;;;25.80;17.00;;;;;;;2.43;67.58;98949.00;105892;1277;22594;-74
2022/04/13 00:59:04;;;;;;;30.10;18.50;;;;;;;2.42;67.65;98948.54;105952;1276;22565;-74
2022/04/13 01:01:47;;;;;;;33.80;18.90;;;;;;;2.41;67.68;98941.64;105777;1276;137302;-74
2022/04/13 01:04:16;;;;;;;31.80;18.30;;;;;;;2.40;67.80;98936.79;106143;1275;25599;-74
2022/04/13 01:06:57;;;;;;;29.20;17.00;;;;;;;2.37;67.79;98937.89;106056;1277;137507;-75
2022/04/13 01:09:26;;;;;;;30.40;16.60;;;;;;;2.33;67.71;98939.77;105928;1274;24333;-74
2022/04/13 01:12:07;;;;;;;27.80;16.50;;;;;;;2.31;67.70;98939.92;106093;1274;137434;-74
2022/04/13 01:14:49;;;;;;;26.10;15.90;;;;;;;2.26;67.76;98939.90;106013;1276;25477;-74
2022/04/13 01:17:30;;;;;;;28.30;16.00;;;;;;;2.22;67.84;98939.41;105784;1276;137907;-75
2022/04/13 01:19:58;;;;;;;28.80;14.60;;;;;;;2.20;67.99;98934.73;105935;1277;25483;-74
2022/04/13 01:22:28;;;;;;;26.60;16.30;;;;;;;2.17;68.02;98932.70;105891;1277;25264;-74
2022/04/13 01:24:55;;;;;;;26.10;15.70;;;;;;;2.13;68.11;98931.92;105784;1277;137460;-74
2022/04/13 01:27:22;;;;;;;33.40;17.90;;;;;;;2.09;68.23;98929.50;106164;1274;25248;-74
2022/04/13 01:30:08;;;;;;;32.10;17.70;;;;;;;2.07;68.29;98927.07;106048;1274;138325;-75
2022/04/13 01:32:38;;;;;;;28.10;16.60;;;;;;;2.05;68.43;98927.25;106102;1273;22667;-74
2022/04/13 01:35:22;;;;;;;25.10;15.10;;;;;;;2.05;68.48;98928.33;105994;1274;25330;-75
2022/04/13 01:38:03;;;;;;;28.00;16.10;;;;;;;2.05;68.56;98927.29;106068;1273;138665;-74
2022/04/13 01:40:33;;;;;;;28.10;15.50;;;;;;;2.05;68.60;98925.52;106088;1274;22557;-75
2022/04/13 01:43:00;;;;;;;27.70;15.90;;;;;;;2.04;68.49;98923.73;106006;1274;137721;-76
2022/04/13 01:45:31;;;;;;;25.90;15.50;;;;;;;2.04;68.57;98924.00;106071;1274;25248;-75
2022/04/13 01:47:58;;;;;;;24.90;15.70;;;;;;;2.03;68.59;98928.02;105923;1275;138093;-75
2022/04/13 01:50:42;;;;;;;27.40;15.20;;;;;;;2.02;68.43;98927.31;106015;1274;25521;-75
2022/04/13 01:53:09;;;;;;;23.70;14.30;;;;;;;2.00;68.56;98929.79;106030;1274;22714;-75
2022/04/13 01:55:37;;;;;;;25.10;14.60;;;;;;;1.98;68.62;98930.45;105857;1276;137687;-74
2022/04/13 01:58:04;;;;;;;29.10;15.30;;;;;;;1.94;68.86;98929.80;105844;1277;25375;-75
2022/04/13 02:00:31;;;;;;;26.00;14.30;;;;;;;1.91;68.89;98930.73;105897;1276;137419;-74
2022/04/13 02:03:12;;;;;;;28.40;17.10;;;;;;;1.87;69.03;98926.52;105763;1277;22625;-75
2022/04/13 02:05:39;;;;;;;26.10;15.40;;;;;;;1.84;69.22;98927.02;106015;1277;24334;-75
2022/04/13 02:08:21;;;;;;;26.40;15.40;;;;;;;1.81;69.34;98922.14;105822;1277;137983;-74
2022/04/13 02:11:03;;;;;;;26.10;14.40;;;;;;;1.84;69.35;98927.02;105910;1277;24111;-75
2022/04/13 02:13:30;;;;;;;28.30;15.10;;;;;;;1.84;69.24;98923.10;105839;1277;137501;-75
2022/04/13 02:15:57;;;;;;;28.50;15.00;;;;;;;1.85;69.14;98919.31;105908;1277;26478;-75
2022/04/13 02:18:24;;;;;;;28.30;14.20;;;;;;;1.86;69.26;98914.80;105833;1277;137510;-75
2022/04/13 02:21:05;;;;;;;30.20;14.90;;;;;;;1.85;69.21;98912.90;106034;1276;25524;-75
2022/04/13 02:23:46;;;;;;;25.90;14.80;;;;;;;1.84;69.22;98915.20;105979;1276;22654;-75
2022/04/13 02:26:14;;;;;;;27.90;15.30;;;;;;;1.83;69.17;98921.83;105906;1277;137352;-75
2022/04/13 02:28:42;;;;;;;29.10;16.10;;;;;;;1.80;69.16;98922.67;105923;1276;22829;-75
2022/04/13 02:31:09;;;;;;;27.40;17.00;;;;;;;1.78;69.41;98927.19;105900;1276;137498;-75
2022/04/13 02:33:36;;;;;;;29.60;15.50;;;;;;;1.77;69.31;98929.67;106013;1276;24432;-75
2022/04/13 02:36:18;;;;;;;28.80;15.00;;;;;;;1.77;69.40;98930.92;105801;1276;137967;-75
2022/04/13 02:38:45;;;;;;;24.90;14.90;;;;;;;1.76;69.53;98933.27;105900;1277;24250;-75
2022/04/13 02:41:29;;;;;;;24.10;14.50;;;;;;;1.77;69.55;98937.33;105788;1277;24126;-74
2022/04/13 02:43:56;;;;;;;25.50;13.70;;;;;;;1.75;69.80;98938.36;105826;1277;137552;-75
2022/04/13 02:46:38;;;;;;;23.00;14.40;;;;;;;1.72;69.95;98936.81;105910;1277;23014;-74
2022/04/13 02:49:05;;;;;;;25.50;14.90;;;;;;;1.68;70.09;98938.11;105915;1277;137793;-74
2022/04/13 02:51:46;;;;;;;21.70;12.70;;;;;;;1.66;70.09;98941.38;105929;1277;22572;-74
2022/04/13 02:54:13;;;;;;;27.50;14.60;;;;;;;1.64;70.13;98944.34;105977;1277;137782;-74
2022/04/13 02:56:40;;;;;;;26.50;13.60;;;;;;;1.61;70.17;98942.92;105855;1277;22556;-74
2022/04/13 02:59:07;;;;;;;25.00;14.30;;;;;;;1.57;70.19;98938.67;105884;1277;24335;-74
2022/04/13 03:01:35;;;;;;;29.10;16.70;;;;;;;1.54;70.20;98940.96;105930;1276;137440;-74
2022/04/13 03:04:16;;;;;;;25.40;15.20;;;;;;;1.52;70.24;98938.02;105857;1278;22714;-74
2022/04/13 03:06:57;;;;;;;25.80;13.00;;;;;;;1.52;70.31;98939.96;105827;1277;138377;-74
2022/04/13 03:09:25;;;;;;;23.80;14.20;;;;;;;1.53;70.18;98942.05;105966;1277;24314;-74
2022/04/13 03:11:53;;;;;;;24.70;14.00;;;;;;;1.54;70.33;98943.77;105770;1277;22529;-74
2022/04/13 03:14:20;;;;;;;23.10;13.80;;;;;;;1.56;70.45;98942.09;105787;1277;137772;-74
2022/04/13 03:16:52;;;;;;;28.20;14.30;;;;;;;1.57;70.20;98943.94;105918;1276;22547;-74
2022/04/13 03:19:35;;;;;;;21.50;12.60;;;;;;;1.57;70.19;98938.40;105854;1276;137560;-74
2022/04/13 03:22:03;;;;;;;25.70;13.70;;;;;;;1.55;70.38;98942.58;105911;1277;22542;-74
2022/04/13 03:24:43;;;;;;;25.10;13.70;;;;;;;1.54;70.31;98938.56;105701;1277;137499;-76
2022/04/13 03:27:11;;;;;;;24.10;12.90;;;;;;;1.52;70.39;98939.06;105943;1276;24429;-76
2022/04/13 03:29:38;;;;;;;26.10;14.40;;;;;;;1.51;70.45;98941.68;105897;1276;25622;-74
2022/04/13 03:32:06;;;;;;;25.30;14.60;;;;;;;1.49;70.55;98939.77;105762;1277;137661;-74
2022/04/13 03:34:33;;;;;;;26.40;14.80;;;;;;;1.48;70.65;98945.55;105994;1277;24271;-74
2022/04/13 03:37:14;;;;;;;22.30;13.80;;;;;;;1.50;70.47;98942.48;105913;1277;138163;-74
2022/04/13 03:39:54;;;;;;;21.30;12.50;;;;;;;1.50;70.53;98943.52;105938;1274;22714;-75
2022/04/13 03:42:39;;;;;;;19.30;12.10;;;;;;;1.50;70.57;98944.45;106024;1277;137759;-75
2022/04/13 03:45:20;;;;;;;24.50;13.60;;;;;;;1.49;70.72;98950.55;105960;1275;25327;-74
2022/04/13 03:47:47;;;;;;;22.80;13.50;;;;;;;1.46;70.77;98948.31;105924;1276;24382;-74
2022/04/13 03:50:15;;;;;;;21.60;12.40;;;;;;;1.45;70.87;98950.06;105782;1276;137810;-75
2022/04/13 03:52:55;;;;;;;24.30;14.00;;;;;;;1.43;71.10;98956.95;106041;1277;22582;-75
2022/04/13 03:55:36;;;;;;;28.80;14.10;;;;;;;1.39;70.95;98954.64;105873;1277;137566;-75
2022/04/13 03:58:04;;;;;;;25.60;14.90;;;;;;;1.38;70.94;98958.08;105882;1274;24203;-75
2022/04/13 04:00:45;;;;;;;27.70;14.90;;;;;;;1.37;71.05;98960.46;105891;1277;137848;-75
2022/04/13 04:03:26;;;;;;;24.10;14.80;;;;;;;1.37;71.10;98965.29;105963;1277;25532;-75
2022/04/13 04:06:07;;;;;;;22.30;13.60;;;;;;;1.40;71.29;98967.80;105845;1277;22576;-75
2022/04/13 04:08:49;;;;;;;27.50;14.20;;;;;;;1.43;70.99;98969.67;105790;1277;137776;-75
2022/04/13 04:11:30;;;;;;;25.10;15.20;;;;;;;1.46;71.24;98967.54;106216;1276;22692;-75
2022/04/13 04:13:57;;;;;;;23.10;14.00;;;;;;;1.47;71.32;98967.92;105924;1274;137764;-75
2022/04/13 04:16:24;;;;;;;26.60;13.90;;;;;;;1.47;71.21;98969.75;106028;1274;22549;-75
2022/04/13 04:18:51;;;;;;;29.80;14.90;;;;;;;1.45;70.86;98975.90;105776;1274;137516;-75
2022/04/13 04:21:32;;;;;;;25.10;16.20;;;;;;;1.40;71.05;98978.27;105926;1277;24361;-74
2022/04/13 04:23:59;;;;;;;31.00;15.80;;;;;;;1.37;71.26;98971.60;105962;1277;25528;-74
2022/04/13 04:26:27;;;;;;;25.80;15.40;;;;;;;1.35;71.28;98971.23;105952;1277;137376;-75
2022/04/13 04:29:08;;;;;;;28.70;16.80;;;;;;;1.34;71.24;98973.88;105930;1277;25304;-75
2022/04/13 04:31:54;;;;;;;28.10;14.90;;;;;;;1.34;71.55;98973.31;105864;1274;138756;-75
2022/04/13 04:34:23;;;;;;;23.90;14.50;;;;;;;1.38;71.67;98979.67;106029;1274;24331;-75
2022/04/13 04:36:50;;;;;;;;;;;;;;;1.40;71.71;98988.02;106155;1274;138453;-75
2022/04/13 04:39:31;;;;;;;22.40;12.90;;;;;;;1.41;71.78;98980.37;105922;1274;22702;-75
2022/04/13 04:41:58;;;;;;;26.00;14.60;;;;;;;1.43;71.77;98986.84;105930;1274;22559;-75
2022/04/13 04:44:39;;;;;;;24.30;14.50;;;;;;;1.44;71.71;98988.27;105855;1274;137831;-76
2022/04/13 04:47:07;;;;;;;27.50;14.80;;;;;;;1.47;71.54;98993.99;105984;1274;22542;-76
2022/04/13 04:49:48;;;;;;;25.40;14.80;;;;;;;1.51;71.76;98995.77;105868;1274;137621;-76
2022/04/13 04:52:15;;;;;;;21.70;13.90;;;;;;;1.53;71.70;98997.84;106020;1276;22496;-76
2022/04/13 04:54:42;;;;;;;24.90;15.30;;;;;;;1.56;71.45;98999.54;106003;1274;137513;-76
2022/04/13 04:57:09;;;;;;;25.20;15.40;;;;;;;1.58;71.64;99005.84;105992;1276;22546;-76
2022/04/13 04:59:36;;;;;;;26.80;14.70;;;;;;;1.63;71.82;99009.23;106041;1274;22529;-76
2022/04/13 05:02:17;;;;;;;23.80;14.10;;;;;;;1.71;71.69;99014.70;105856;1274;137580;-76
2022/04/13 05:04:44;;;;;;;23.50;13.30;;;;;;;1.79;71.64;99015.15;105772;1275;22698;-76
2022/04/13 05:07:11;;;;;;;21.60;12.60;;;;;;;1.86;71.61;99015.01;105845;1276;137802;-76
2022/04/13 05:09:52;;;;;;;22.40;13.50;;;;;;;1.93;71.32;99017.50;105930;1276;24340;-76
2022/04/13 05:12:20;;;;;;;24.40;14.50;;;;;;;1.97;71.25;99021.30;106274;1274;23046;-76
2022/04/13 05:15:03;;;;;;;25.80;14.00;;;;;;;2.04;71.24;99023.18;105982;1273;137400;-76
2022/04/13 05:17:31;;;;;;;22.90;14.10;;;;;;;2.09;71.23;99024.17;106113;1274;22615;-76
2022/04/13 05:19:58;;;;;;;21.20;12.10;;;;;;;2.15;71.01;99021.98;105732;1275;137489;-76
2022/04/13 05:22:25;;;;;;;23.20;13.20;;;;;;;2.19;71.21;99021.15;106130;1274;23395;-76
2022/04/13 05:24:52;;;;;;;24.70;14.80;;;;;;;2.23;71.01;99022.27;106129;1274;137585;-76
2022/04/13 05:27:19;;;;;;;18.50;12.70;;;;;;;2.28;70.76;99021.13;106072;1274;24361;-75
2022/04/13 05:30:01;;;;;;;19.70;12.40;;;;;;;2.33;70.71;99022.41;105996;1274;22538;-75
2022/04/13 05:32:28;;;;;;;19.50;11.50;;;;;;;2.41;70.83;99023.10;105977;1274;138158;-75
2022/04/13 05:35:03;;;;;;;19.60;11.30;;;;;;;2.51;70.65;99022.95;105950;1276;22566;-75
2022/04/13 05:37:44;;;;;;;16.00;10.10;;;;;;;2.62;70.43;99017.57;105966;1276;137771;-75
2022/04/13 05:40:12;;;;;;;19.00;12.30;;;;;;;2.73;70.30;99019.41;106044;1276;22832;-77
2022/04/13 05:42:39;;;;;;;20.60;11.20;;;;;;;2.81;70.23;99017.41;106062;1274;24394;-75
2022/04/13 05:45:08;;;;;;;16.90;9.80;;;;;;;2.91;70.19;99012.19;105930;1277;138433;-75
2022/04/13 05:47:37;;;;;;;13.60;9.40;;;;;;;3.00;70.09;99016.97;106084;1277;25311;-75
2022/04/13 05:50:13;;;;;;;18.70;9.60;;;;;;;3.10;69.93;99021.10;105931;1277;137420;-77
2022/04/13 05:52:42;;;;;;;13.50;8.90;;;;;;;3.19;69.81;99025.17;106255;1276;25339;-75
2022/04/13 05:55:16;;;;;;;17.30;11.10;;;;;;;3.29;69.48;99021.30;106142;1276;137250;-75
2022/04/13 05:57:59;;;;;;;21.10;11.10;;;;;;;3.41;69.14;99017.58;106061;1276;22569;-75
2022/04/13 06:00:28;;;;;;;17.40;10.30;;;;;;;3.50;69.14;99017.75;106244;1275;23491;-75
2022/04/13 06:02:59;;;;;;;16.10;10.10;;;;;;;3.58;69.07;99021.89;106375;1274;137878;-75
2022/04/13 06:05:30;;;;;;;22.70;11.30;;;;;;;3.69;68.92;99024.80;106206;1274;22547;-75
2022/04/13 06:07:57;;;;;;;18.40;11.80;;;;;;;3.78;68.62;99024.10;106219;1274;137728;-76
2022/04/13 06:10:32;;;;;;;19.80;11.40;;;;;;;3.88;68.59;99026.06;106172;1274;23141;-76
2022/04/13 06:13:08;;;;;;;16.50;9.90;;;;;;;4.00;68.06;99026.45;106097;1274;137507;-76
2022/04/13 06:15:53;;;;;;;17.70;10.70;;;;;;;4.10;67.61;99024.20;106699;1274;23360;-74
2022/04/13 06:19:04;;;;;;;20.40;11.40;;;;;;;4.20;67.59;99028.55;106187;1275;24244;-74
2022/04/13 06:21:47;;;;;;;16.80;10.30;;;;;;;4.34;67.27;99034.44;106197;1274;22542;-75
2022/04/13 06:24:17;;;;;;;21.00;11.80;;;;;;;4.43;66.92;99033.90;106308;1274;23489;-74
2022/04/13 06:26:48;;;;;;;18.40;10.50;;;;;;;4.52;67.14;99037.19;106153;1274;137671;-74
2022/04/13 06:29:29;;;;;;;20.60;10.30;;;;;;;4.63;66.85;99039.47;106262;1274;22548;-75
2022/04/13 06:32:14;;;;;;;16.40;9.30;;;;;;;4.73;66.11;99041.35;106130;1274;137425;-74
2022/04/13 06:34:44;;;;;;;16.50;9.10;;;;;;;4.81;65.76;99039.39;106745;1277;25371;-74
2022/04/13 06:37:11;;;;;;;17.90;10.10;;;;;;;4.89;65.96;99044.45;105844;1276;137675;-75
2022/04/13 06:39:38;;;;;;;19.00;11.10;;;;;;;4.98;65.91;99045.32;106194;1276;22769;-74
2022/04/13 06:42:22;;;;;;;17.10;9.50;;;;;;;5.07;65.43;99044.89;106249;1276;24363;-74
2022/04/13 06:44:52;;;;;;;19.40;9.90;;;;;;;5.14;65.26;99045.92;105837;1276;137405;-74
2022/04/13 06:47:33;;;;;;;16.80;9.30;;;;;;;5.22;65.16;99044.07;105829;1276;30207;-74
2022/04/13 06:50:14;;;;;;;15.70;9.40;;;;;;;5.32;65.20;99046.95;105811;1276;137367;-74
2022/04/13 06:52:42;;;;;;;14.00;10.10;;;;;;;5.42;65.00;99051.27;105646;1276;384848;-74
2022/04/13 06:55:10;;;;;;;13.80;8.90;;;;;;;5.49;64.10;99053.80;105997;1276;24310;-75
2022/04/13 06:57:38;;;;;;;20.30;9.80;;;;;;;5.58;63.82;99055.16;105873;1277;137048;-75
2022/04/13 07:00:11;;;;;;;18.00;9.50;;;;;;;5.67;63.88;99053.30;105742;1277;22559;-75
2022/04/13 07:02:40;;;;;;;17.60;9.40;;;;;;;5.74;63.79;99051.40;105792;1277;137138;-75
2022/04/13 07:05:21;;;;;;;15.20;10.00;;;;;;;5.84;63.40;99051.78;105784;1277;22573;-75
2022/04/13 07:08:05;;;;;;;14.90;9.60;;;;;;;5.91;62.57;99052.61;105546;1276;137364;-75
2022/04/13 07:10:33;;;;;;;16.10;8.50;;;;;;;5.99;62.46;99053.09;105678;1276;25378;-75
2022/04/13 07:13:01;;;;;;;21.80;10.20;;;;;;;6.08;62.56;99049.30;105751;1276;22562;-76
2022/04/13 07:15:28;;;;;;;13.80;8.20;;;;;;;6.17;62.33;99057.45;105748;1277;137834;-75
2022/04/13 07:17:57;;;;;;;18.10;9.40;;;;;;;6.25;61.91;99053.16;105816;1277;22567;-74
2022/04/13 07:20:38;;;;;;;16.30;8.50;;;;;;;6.34;61.64;99051.81;105890;1277;137233;-74
2022/04/13 07:23:05;;;;;;;15.10;8.00;;;;;;;6.41;61.52;99053.35;105949;1277;22535;-75
2022/04/13 07:25:33;;;;;;;14.20;8.30;;;;;;;6.50;60.89;99053.73;105669;1277;137467;-74
2022/04/13 07:28:00;;;;;;;18.10;8.40;;;;;;;6.60;60.93;99051.60;105917;1277;22574;-74
2022/04/13 07:30:27;;;;;;;18.20;9.60;;;;;;;6.69;60.24;99051.63;107008;1276;25293;-74
2022/04/13 07:32:55;;;;;;;14.00;7.70;;;;;;;6.77;59.74;99052.02;106130;1278;137183;-73
2022/04/13 07:35:22;;;;;;;16.40;9.20;;;;;;;6.87;59.12;99051.83;106201;1276;25257;-74
2022/04/13 07:37:49;;;;;;;16.20;8.40;;;;;;;6.97;59.44;99052.77;106496;1277;137288;-74
2022/04/13 07:40:30;;;;;;;11.20;7.30;;;;;;;7.09;59.11;99055.45;105809;1277;22686;-74
2022/04/13 07:43:12;;;;;;;13.30;7.40;;;;;;;7.20;58.32;99052.55;105880;1277;25314;-74
2022/04/13 07:45:53;;;;;;;12.40;7.20;;;;;;;7.34;58.07;99051.63;106168;1278;137339;-74
2022/04/13 07:48:20;;;;;;;17.00;8.20;;;;;;;7.47;58.23;99054.83;106183;1277;22706;-74
2022/04/13 07:51:01;;;;;;;13.20;7.60;;;;;;;7.60;57.55;99056.65;106366;1277;137071;-74
2022/04/13 07:53:28;;;;;;;13.00;7.50;;;;;;;7.73;56.19;99056.91;106381;1277;24205;-74
2022/04/13 07:56:09;;;;;;;14.90;8.70;;;;;;;7.85;56.54;99052.76;105982;1277;137448;-74
2022/04/13 07:58:50;;;;;;;13.60;7.10;;;;;;;8.00;56.74;99053.50;106664;1276;25562;-74
2022/04/13 08:01:18;;;;;;;12.60;8.10;;;;;;;8.15;55.95;99053.13;106006;1276;24211;-74
2022/04/13 08:03:47;;;;;;;11.60;7.10;;;;;;;8.30;55.42;99049.92;105895;1276;137202;-74
2022/04/13 08:06:16;;;;;;;13.20;7.40;;;;;;;8.43;54.87;99049.18;106043;1276;22563;-74
2022/04/13 08:08:46;;;;;;;12.90;7.50;;;;;;;8.54;54.86;99049.77;105958;1277;137245;-74
2022/04/13 08:11:13;;;;;;;;;;;;;;;8.68;54.83;99054.10;106227;1277;22608;-74
2022/04/13 08:13:42;;;;;;;11.30;6.00;;;;;;;8.82;54.05;99048.63;105708;1277;123784;-74
2022/04/13 08:16:10;;;;;;;10.00;6.30;;;;;;;8.95;53.79;99048.20;106005;1277;25299;-74
2022/04/13 08:18:38;;;;;;;12.50;7.20;;;;;;;9.08;53.56;99050.79;106038;1277;22691;-74
2022/04/13 08:21:19;;;;;;;15.90;7.00;;;;;;;9.23;52.92;99049.91;105936;1276;138139;-74
2022/04/13 08:23:48;;;;;;;11.20;5.80;;;;;;;9.35;52.48;99045.83;106100;1276;22655;-74
2022/04/13 08:26:29;;;;;;;11.20;5.40;;;;;;;9.49;51.93;99044.59;105805;1276;137447;-74
2022/04/13 08:28:57;;;;;;;8.20;5.30;;;;;;;9.60;52.33;99043.30;106286;1276;24377;-74
2022/04/13 08:31:25;;;;;;;8.90;5.50;;;;;;;9.74;51.54;99043.72;106001;1277;22611;-74
2022/04/13 08:34:07;;;;;;;7.00;5.50;;;;;;;9.88;51.13;99036.76;105869;1276;137074;-74
2022/04/13 08:36:37;;;;;;;9.80;5.50;;;;;;;9.99;50.63;99037.48;105977;1276;22716;-74
2022/04/13 08:39:08;;;;;;;9.20;5.30;;;;;;;10.11;50.70;99035.98;105835;1279;137751;-74
2022/04/13 08:41:49;;;;;;;8.70;5.40;;;;;;;10.24;50.98;99033.20;105839;1279;22638;-74
2022/04/13 08:44:22;;;;;;;8.10;5.20;;;;;;;10.38;50.55;99031.45;105740;1279;137724;-74
2022/04/13 08:47:07;;;;;;;8.00;4.90;;;;;;;10.51;50.12;99026.17;105808;1278;25256;-74
2022/04/13 08:49:34;;;;;;;7.90;5.70;;;;;;;10.63;49.92;99026.92;105809;1279;25459;-74
2022/04/13 08:52:08;;;;;;;6.80;5.10;;;;;;;10.75;49.64;99027.38;105670;1280;137333;-74
2022/04/13 08:54:58;;;;;;;7.80;4.80;;;;;;;10.87;49.28;99022.59;105855;1280;22575;-74
2022/04/13 08:57:34;;;;;;;8.30;4.40;;;;;;;11.03;49.17;99023.67;105775;1279;138409;-74
2022/04/13 09:00:11;;;;;;;7.00;4.90;;;;;;;11.17;48.47;99021.56;105772;1278;25422;-74
2022/04/13 09:03:01;;;;;;;10.50;5.00;;;;;;;11.30;48.26;99020.84;105748;1278;137385;-74
2022/04/13 09:05:32;;;;;;;9.00;4.60;;;;;;;11.42;48.19;99022.61;105897;1277;25431;-74
2022/04/13 09:08:12;;;;;;;9.60;4.80;;;;;;;11.54;48.15;99016.15;105709;1279;137721;-74
2022/04/13 09:10:54;;;;;;;10.00;5.40;;;;;;;11.68;48.49;99019.67;105779;1280;25313;-75
2022/04/13 09:13:24;;;;;;;7.10;4.80;;;;;;;11.80;47.80;99019.02;105875;1280;22766;-74
2022/04/13 09:15:53;;;;;;;9.10;5.00;;;;;;;11.93;46.73;99017.71;105929;1280;137373;-74
2022/04/13 09:18:34;;;;;;;6.90;4.50;;;;;;;12.05;46.91;99015.00;105797;1280;22670;-73
2022/04/13 09:21:17;;;;;;;8.20;4.60;;;;;;;12.17;46.90;99016.46;105671;1279;137389;-73
2022/04/13 09:23:46;;;;;;;8.10;4.50;;;;;;;12.26;46.48;99015.29;105825;1279;22701;-73
2022/04/13 09:26:18;;;;;;;5.80;4.20;;;;;;;12.36;45.46;99016.03;105793;1279;137605;-74
2022/04/13 09:29:00;;;;;;;7.70;4.30;;;;;;;12.49;45.71;99020.48;105714;1279;22682;-73
2022/04/13 09:31:27;;;;;;;7.50;4.80;;;;;;;12.60;44.66;99013.42;106022;1279;22551;-74
2022/04/13 09:33:54;;;;;;;9.70;4.90;;;;;;;12.70;45.83;99018.31;105757;1280;137486;-74
2022/04/13 09:36:22;;;;;;;11.10;5.50;;;;;;;12.84;45.18;99018.51;105899;1280;22570;-73
2022/04/13 09:38:52;;;;;;;7.20;5.00;;;;;;;12.93;44.69;99017.58;105824;1277;137761;-73
2022/04/13 09:41:19;;;;;;;7.10;4.80;;;;;;;13.02;44.15;99018.88;106031;1276;25435;-74
2022/04/13 09:43:55;;;;;;;10.70;4.60;;;;;;;13.09;44.12;99019.60;105802;1276;137539;-74
2022/04/13 09:46:37;;;;;;;7.90;4.40;;;;;;;13.20;43.27;99012.56;105729;1278;22864;-73
2022/04/13 09:49:10;;;;;;;6.40;4.90;;;;;;;13.32;44.08;99011.94;105897;1276;22573;-73
2022/04/13 09:51:43;;;;;;;8.00;5.30;;;;;;;13.45;44.07;99006.36;106180;1276;137404;-73
2022/04/13 09:54:11;;;;;;;8.40;5.60;;;;;;;13.57;43.87;99007.20;105939;1276;22824;-73
2022/04/13 09:56:53;;;;;;;7.10;5.20;;;;;;;13.69;43.36;99005.52;105713;1278;137378;-73
2022/04/13 09:59:30;;;;;;;7.00;5.00;;;;;;;13.79;42.66;99004.18;105920;1276;25312;-73
2022/04/13 10:01:59;;;;;;;10.00;5.40;;;;;;;13.91;43.06;98999.19;105826;1277;137485;-73
2022/04/13 10:04:31;;;;;;;9.50;5.40;;;;;;;14.02;43.37;98999.33;105966;1277;22585;-73
2022/04/13 10:07:15;;;;;;;7.90;5.20;;;;;;;14.12;42.36;98995.67;105974;1278;22556;-73
2022/04/13 10:09:57;;;;;;;8.70;5.20;;;;;;;14.18;42.11;98995.20;105817;1277;137389;-73
2022/04/13 10:12:46;;;;;;;11.40;5.40;;;;;;;14.25;42.35;98995.73;105926;1276;22548;-73
2022/04/13 10:15:28;;;;;;;9.90;5.80;;;;;;;14.35;42.11;98991.51;105670;1277;137926;-73
2022/04/13 10:18:05;;;;;;;8.70;6.10;;;;;;;14.44;41.61;98985.54;105818;1276;24384;-73
2022/04/13 10:20:47;;;;;;;6.80;4.80;;;;;;;14.52;41.80;98983.64;105737;1279;137465;-73
2022/04/13 10:23:40;;;;;;;6.10;4.60;;;;;;;14.63;41.77;98984.29;106115;1279;33072;-73
2022/04/13 10:26:21;;;;;;;7.00;5.00;;;;;;;14.77;40.37;98984.02;105771;1277;137604;-73
2022/04/13 10:28:49;;;;;;;6.30;4.60;;;;;;;14.81;39.16;98979.96;105999;1277;23365;-73
2022/04/13 10:31:17;;;;;;;9.60;5.20;;;;;;;14.86;39.22;98982.14;105998;1277;23669;-72
2022/04/13 10:33:47;;;;;;;10.40;5.30;;;;;;;14.92;40.20;98979.40;105651;1279;137492;-73
2022/04/13 10:36:16;;;;;;;7.20;5.60;;;;;;;15.04;40.39;98984.33;105672;1279;24244;-73
2022/04/13 10:38:57;;;;;;;7.80;4.90;;;;;;;15.15;39.47;98983.71;106851;1276;137309;-73
2022/04/13 10:41:26;;;;;;;8.10;5.30;;;;;;;15.26;39.84;98978.80;106533;1276;23293;-73
2022/04/13 10:43:58;;;;;;;9.80;5.30;;;;;;;15.37;39.49;98977.88;106031;1277;137672;-73
2022/04/13 10:46:26;;;;;;;8.30;5.20;;;;;;;15.47;38.68;98972.90;106163;1277;22566;-73
2022/04/13 10:49:13;;;;;;;8.80;4.70;;;;;;;15.54;38.50;98969.11;105988;1280;25365;-74
2022/04/13 10:52:01;;;;;;;6.00;4.50;;;;;;;15.63;38.42;98966.02;106280;1277;137567;-71
2022/04/13 10:54:31;;;;;;;8.30;4.30;;;;;;;15.74;38.25;98961.94;106141;1279;25130;-72
2022/04/13 10:57:13;;;;;;;8.60;6.00;;;;;;;15.85;38.45;98960.91;105666;1279;138070;-73
2022/04/13 11:00:15;;;;;;;5.70;4.10;;;;;;;16.00;38.47;98958.77;106171;1276;22561;-72
2022/04/13 11:03:05;;;;;;;11.80;4.80;;;;;;;16.15;37.59;98961.92;106183;1276;137275;-72
2022/04/13 11:05:33;;;;;;;6.70;4.90;;;;;;;16.24;36.77;98961.18;105946;1277;24439;-73
2022/04/13 11:08:09;;;;;;;7.90;4.50;;;;;;;16.31;36.77;98958.35;105883;1277;138076;-73
2022/04/13 11:10:51;;;;;;;5.90;4.50;;;;;;;16.38;36.07;98960.88;105877;1277;25500;-73
2022/04/13 11:13:33;;;;;;;8.10;5.60;;;;;;;16.47;36.25;98955.63;105803;1277;22650;-73
2022/04/13 11:16:15;;;;;;;10.00;4.60;;;;;;;16.56;35.56;98951.79;105903;1276;137868;-73
2022/04/13 11:19:05;;;;;;;6.50;4.80;;;;;;;16.61;34.42;98951.54;106137;1276;22769;-74
2022/04/13 11:21:35;;;;;;;7.50;4.50;;;;;;;16.59;33.87;98955.98;105777;1279;137414;-73
2022/04/13 11:24:40;;;;;;;6.20;4.00;;;;;;;16.63;34.60;98955.92;106181;1277;22789;-72
2022/04/13 11:27:10;;;;;;;6.90;4.80;;;;;;;16.76;33.92;98960.69;105836;1277;137333;-73
2022/04/13 11:29:45;;;;;;;6.40;4.50;;;;;;;16.84;33.46;98966.66;105715;1277;24218;-72
2022/04/13 11:32:16;;;;;;;6.80;4.60;;;;;;;16.94;33.44;98965.35;105811;1277;137633;-73
2022/04/13 11:35:00;;;;;;;7.00;5.00;;;;;;;16.98;33.67;98973.49;105848;1276;30222;-73
2022/04/13 11:37:43;;;;;;;9.80;4.70;;;;;;;17.00;32.40;98971.02;106058;1276;22624;-73
2022/04/13 11:40:24;;;;;;;7.00;4.60;;;;;;;16.99;33.78;98972.46;105680;1279;137560;-74
2022/04/13 11:42:52;;;;;;;6.00;4.70;;;;;;;17.02;33.88;98972.58;105874;1277;22516;-73
2022/04/13 11:45:24;;;;;;;6.10;4.00;;;;;;;17.05;33.55;98975.21;105864;1276;137428;-72
2022/04/13 11:47:58;;;;;;;5.80;4.20;;;;;;;17.17;33.43;98970.75;105979;1276;22730;-72
2022/04/13 11:50:33;;;;;;;9.00;5.30;;;;;;;17.26;32.21;98962.05;105939;1276;137469;-71